Startpagina
METAR-TAF:

METAR-TAF

Vliegvelden :

Luchthaven Ambouli Internationaal

Djibouti, Djibouti

breedte: 11-33N, lengte: 043-10E, hoogte: 49 m

Actueel weer

Dit bericht is 42 minuten geleden gemaakt, om 11:00 UTC
Wind 12 kt uit het oosten
Temperatuur 35°C
Vochtigheid 60%
Druk 1006 hPa
Zicht 10 km of meer
Weinig wolken op 2300 ft

METAR: HDAM 191100Z 08012KT 9999 FEW023 35/26 Q1006

Tijdstip: 14:42 (11:42 UTC)

Verwachting

Dit bericht is 42 minuten geleden gemaakt, om 11:00 UTC
Verwachting geldig van 19 om 12 UTC tot 20 om 12 UTC
Wind 10 kt uit het oosten
Zicht 10 km of meer
Weinig wolken op 2300 ft
Wijzigt naar
van 19 om 12 UTC tot 19 om 15 UTC
Weinig wolken op 3000 ft, Cumulonimbus.
Wijzigt naar
van 19 om 15 UTC tot 20 om 06 UTC
Wind 3 kt uit variabele richting
Verspreide wolken op 2000 ft

TAF: HDAM 191100Z 1912/2012 08010KT 9999 FEW023 BECMG 1912/1915 FEW030CB BECMG 1915/2006 VRB03KT SCT020

Waarnemingen en weersverwachtingen van meer dan 4000 vliegvelden (METAR en TAF).

De beschikbare stations zijn de gele en rode punten op de kaart.

Ga met uw muis naar het station om de naam te zien.

Klik dan om waarnemingen en weersverwachtingen te zien.

kaart wijzigen: klik op de groene knoppen met een zwart kruis om in te zoomen, op de groene knop met een streepje om uit te zoomen of op de groene pijlen voor aangrenzende kaarten.


METAR-TAF: